sensor_id;sensor_type;location;lat;lon;timestamp;temperature;humidity
65038;DHT22;51605;47.040;15.294;2023-09-19T00:00:30;24.50;50.70
65038;DHT22;51605;47.040;15.294;2023-09-19T00:02:57;24.60;50.80
65038;DHT22;51605;47.040;15.294;2023-09-19T00:05:28;24.50;50.70
65038;DHT22;51605;47.040;15.294;2023-09-19T00:07:56;24.50;50.80
65038;DHT22;51605;47.040;15.294;2023-09-19T00:10:24;24.50;50.80
65038;DHT22;51605;47.040;15.294;2023-09-19T00:12:59;24.50;50.80
65038;DHT22;51605;47.040;15.294;2023-09-19T00:15:26;24.50;50.80
65038;DHT22;51605;47.040;15.294;2023-09-19T00:17:56;24.50;50.70
65038;DHT22;51605;47.040;15.294;2023-09-19T00:20:23;24.60;50.80
65038;DHT22;51605;47.040;15.294;2023-09-19T00:22:50;24.50;50.80
65038;DHT22;51605;47.040;15.294;2023-09-19T00:25:20;24.60;50.80
65038;DHT22;51605;47.040;15.294;2023-09-19T00:27:46;24.60;50.70
65038;DHT22;51605;47.040;15.294;2023-09-19T00:30:13;24.60;50.70
65038;DHT22;51605;47.040;15.294;2023-09-19T00:32:50;24.60;50.60
65038;DHT22;51605;47.040;15.294;2023-09-19T00:35:20;24.60;50.70
65038;DHT22;51605;47.040;15.294;2023-09-19T00:37:46;24.60;50.80
65038;DHT22;51605;47.040;15.294;2023-09-19T00:40:12;24.50;50.70
65038;DHT22;51605;47.040;15.294;2023-09-19T00:42:48;24.50;50.80
65038;DHT22;51605;47.040;15.294;2023-09-19T00:45:17;24.50;50.80
65038;DHT22;51605;47.040;15.294;2023-09-19T00:47:46;24.50;50.70
65038;DHT22;51605;47.040;15.294;2023-09-19T00:50:21;24.50;50.70
65038;DHT22;51605;47.040;15.294;2023-09-19T00:52:49;24.60;50.80
65038;DHT22;51605;47.040;15.294;2023-09-19T00:55:16;24.60;50.70
65038;DHT22;51605;47.040;15.294;2023-09-19T00:57:44;24.60;50.70
65038;DHT22;51605;47.040;15.294;2023-09-19T01:00:13;24.60;50.70
65038;DHT22;51605;47.040;15.294;2023-09-19T01:02:44;24.60;50.70
65038;DHT22;51605;47.040;15.294;2023-09-19T01:05:10;24.60;50.70
65038;DHT22;51605;47.040;15.294;2023-09-19T01:07:36;24.60;50.70
65038;DHT22;51605;47.040;15.294;2023-09-19T01:10:15;24.60;50.80
65038;DHT22;51605;47.040;15.294;2023-09-19T01:31:40;24.50;50.80
65038;DHT22;51605;47.040;15.294;2023-09-19T01:34:08;24.50;50.80
65038;DHT22;51605;47.040;15.294;2023-09-19T01:36:36;24.60;51.00
65038;DHT22;51605;47.040;15.294;2023-09-19T01:39:10;24.50;50.90
65038;DHT22;51605;47.040;15.294;2023-09-19T01:44:51;24.50;50.90
65038;DHT22;51605;47.040;15.294;2023-09-19T01:47:34;24.50;50.90
65038;DHT22;51605;47.040;15.294;2023-09-19T01:50:32;24.50;50.90
65038;DHT22;51605;47.040;15.294;2023-09-19T01:53:05;24.50;50.80
65038;DHT22;51605;47.040;15.294;2023-09-19T01:55:37;24.60;50.90
65038;DHT22;51605;47.040;15.294;2023-09-19T02:00:46;24.50;50.90
65038;DHT22;51605;47.040;15.294;2023-09-19T02:03:14;24.50;50.90
65038;DHT22;51605;47.040;15.294;2023-09-19T02:05:40;24.50;50.90
65038;DHT22;51605;47.040;15.294;2023-09-19T02:08:05;24.50;50.90
65038;DHT22;51605;47.040;15.294;2023-09-19T02:10:31;24.50;50.90
65038;DHT22;51605;47.040;15.294;2023-09-19T02:12:57;24.60;50.90
65038;DHT22;51605;47.040;15.294;2023-09-19T02:15:24;24.60;50.90
65038;DHT22;51605;47.040;15.294;2023-09-19T02:17:49;24.60;50.90
65038;DHT22;51605;47.040;15.294;2023-09-19T02:20:15;24.60;51.00
65038;DHT22;51605;47.040;15.294;2023-09-19T02:22:42;24.60;50.90
65038;DHT22;51605;47.040;15.294;2023-09-19T02:25:08;24.50;50.80
65038;DHT22;51605;47.040;15.294;2023-09-19T02:27:34;24.60;50.90
65038;DHT22;51605;47.040;15.294;2023-09-19T02:30:00;24.50;50.80
65038;DHT22;51605;47.040;15.294;2023-09-19T02:32:30;24.60;50.90
65038;DHT22;51605;47.040;15.294;2023-09-19T02:35:02;24.60;50.90
65038;DHT22;51605;47.040;15.294;2023-09-19T02:37:30;24.60;50.90
65038;DHT22;51605;47.040;15.294;2023-09-19T02:39:56;24.50;50.90
65038;DHT22;51605;47.040;15.294;2023-09-19T02:42:22;24.50;50.90
65038;DHT22;51605;47.040;15.294;2023-09-19T02:44:47;24.50;50.90
65038;DHT22;51605;47.040;15.294;2023-09-19T02:47:13;24.50;50.90
65038;DHT22;51605;47.040;15.294;2023-09-19T02:49:40;24.60;50.90
65038;DHT22;51605;47.040;15.294;2023-09-19T02:52:06;24.50;50.90
65038;DHT22;51605;47.040;15.294;2023-09-19T02:54:33;24.60;50.80
65038;DHT22;51605;47.040;15.294;2023-09-19T02:56:58;24.60;50.80
65038;DHT22;51605;47.040;15.294;2023-09-19T02:59:24;24.50;50.80
65038;DHT22;51605;47.040;15.294;2023-09-19T03:01:50;24.60;50.90
65038;DHT22;51605;47.040;15.294;2023-09-19T03:04:16;24.60;50.90
65038;DHT22;51605;47.040;15.294;2023-09-19T03:06:45;24.50;50.90
65038;DHT22;51605;47.040;15.294;2023-09-19T03:09:11;24.50;50.90
65038;DHT22;51605;47.040;15.294;2023-09-19T03:11:38;24.60;50.90
65038;DHT22;51605;47.040;15.294;2023-09-19T03:14:05;24.60;50.90
65038;DHT22;51605;47.040;15.294;2023-09-19T03:16:31;24.50;50.90
65038;DHT22;51605;47.040;15.294;2023-09-19T03:18:57;24.60;51.00
65038;DHT22;51605;47.040;15.294;2023-09-19T03:21:23;24.60;51.00
65038;DHT22;51605;47.040;15.294;2023-09-19T03:23:49;24.50;50.90
65038;DHT22;51605;47.040;15.294;2023-09-19T03:26:15;24.50;50.90
65038;DHT22;51605;47.040;15.294;2023-09-19T03:28:41;24.60;51.00
65038;DHT22;51605;47.040;15.294;2023-09-19T03:31:09;24.50;51.00
65038;DHT22;51605;47.040;15.294;2023-09-19T03:33:35;24.50;51.00
65038;DHT22;51605;47.040;15.294;2023-09-19T03:36:01;24.50;50.90
65038;DHT22;51605;47.040;15.294;2023-09-19T03:38:30;24.60;51.00
65038;DHT22;51605;47.040;15.294;2023-09-19T03:40:57;24.50;51.20
65038;DHT22;51605;47.040;15.294;2023-09-19T03:43:22;24.60;51.00
65038;DHT22;51605;47.040;15.294;2023-09-19T03:45:48;24.60;51.00
65038;DHT22;51605;47.040;15.294;2023-09-19T03:48:14;24.60;51.00
65038;DHT22;51605;47.040;15.294;2023-09-19T03:50:40;24.60;50.90
65038;DHT22;51605;47.040;15.294;2023-09-19T03:53:06;24.50;51.00
65038;DHT22;51605;47.040;15.294;2023-09-19T03:55:34;24.50;50.90
65038;DHT22;51605;47.040;15.294;2023-09-19T03:58:04;24.50;51.00
65038;DHT22;51605;47.040;15.294;2023-09-19T04:00:30;24.50;51.00
65038;DHT22;51605;47.040;15.294;2023-09-19T04:02:56;24.50;51.00
65038;DHT22;51605;47.040;15.294;2023-09-19T04:05:23;24.50;51.00
65038;DHT22;51605;47.040;15.294;2023-09-19T04:07:49;24.50;50.90
65038;DHT22;51605;47.040;15.294;2023-09-19T04:10:15;24.60;51.00
65038;DHT22;51605;47.040;15.294;2023-09-19T04:12:53;24.60;51.00
65038;DHT22;51605;47.040;15.294;2023-09-19T04:15:21;24.50;51.00
65038;DHT22;51605;47.040;15.294;2023-09-19T04:17:51;24.50;51.30
65038;DHT22;51605;47.040;15.294;2023-09-19T04:20:18;24.60;51.00
65038;DHT22;51605;47.040;15.294;2023-09-19T04:22:45;24.50;50.90
65038;DHT22;51605;47.040;15.294;2023-09-19T04:25:11;24.60;51.10
65038;DHT22;51605;47.040;15.294;2023-09-19T04:27:37;24.50;51.00
65038;DHT22;51605;47.040;15.294;2023-09-19T04:30:04;24.50;51.10
65038;DHT22;51605;47.040;15.294;2023-09-19T04:32:35;24.50;52.10
65038;DHT22;51605;47.040;15.294;2023-09-19T04:35:04;24.50;51.10
65038;DHT22;51605;47.040;15.294;2023-09-19T04:37:31;24.50;51.00
65038;DHT22;51605;47.040;15.294;2023-09-19T04:39:58;24.50;51.00
65038;DHT22;51605;47.040;15.294;2023-09-19T04:42:23;24.50;50.90
65038;DHT22;51605;47.040;15.294;2023-09-19T04:44:50;24.50;50.90
65038;DHT22;51605;47.040;15.294;2023-09-19T04:47:18;24.50;51.00
65038;DHT22;51605;47.040;15.294;2023-09-19T04:49:44;24.50;51.00
65038;DHT22;51605;47.040;15.294;2023-09-19T04:52:10;24.50;50.90
65038;DHT22;51605;47.040;15.294;2023-09-19T04:54:35;24.50;50.80
65038;DHT22;51605;47.040;15.294;2023-09-19T04:57:01;24.60;50.80
65038;DHT22;51605;47.040;15.294;2023-09-19T04:59:27;24.60;50.80
65038;DHT22;51605;47.040;15.294;2023-09-19T05:01:54;24.60;51.80
65038;DHT22;51605;47.040;15.294;2023-09-19T05:04:19;24.60;50.80
65038;DHT22;51605;47.040;15.294;2023-09-19T05:06:45;24.60;50.90
65038;DHT22;51605;47.040;15.294;2023-09-19T05:09:10;24.60;51.00
65038;DHT22;51605;47.040;15.294;2023-09-19T05:11:36;24.60;50.90
65038;DHT22;51605;47.040;15.294;2023-09-19T05:14:03;24.60;50.90
65038;DHT22;51605;47.040;15.294;2023-09-19T05:16:29;24.50;50.90
65038;DHT22;51605;47.040;15.294;2023-09-19T05:18:58;24.50;50.90
65038;DHT22;51605;47.040;15.294;2023-09-19T05:21:26;24.50;50.90
65038;DHT22;51605;47.040;15.294;2023-09-19T05:23:54;24.50;51.00
65038;DHT22;51605;47.040;15.294;2023-09-19T05:26:20;24.50;51.10
65038;DHT22;51605;47.040;15.294;2023-09-19T05:28:46;24.50;51.10
65038;DHT22;51605;47.040;15.294;2023-09-19T05:31:13;24.50;51.00
65038;DHT22;51605;47.040;15.294;2023-09-19T05:33:39;24.50;51.00
65038;DHT22;51605;47.040;15.294;2023-09-19T05:36:05;24.50;51.00
65038;DHT22;51605;47.040;15.294;2023-09-19T05:38:30;24.50;51.00
65038;DHT22;51605;47.040;15.294;2023-09-19T05:40:58;24.50;51.10
65038;DHT22;51605;47.040;15.294;2023-09-19T05:43:23;24.50;51.10
65038;DHT22;51605;47.040;15.294;2023-09-19T05:45:49;24.50;51.10
65038;DHT22;51605;47.040;15.294;2023-09-19T05:48:17;24.50;51.00
65038;DHT22;51605;47.040;15.294;2023-09-19T05:50:43;24.50;50.90
65038;DHT22;51605;47.040;15.294;2023-09-19T05:53:09;24.50;51.00
65038;DHT22;51605;47.040;15.294;2023-09-19T05:55:38;24.60;51.10
65038;DHT22;51605;47.040;15.294;2023-09-19T05:58:04;24.50;51.00
65038;DHT22;51605;47.040;15.294;2023-09-19T06:00:30;24.50;51.00
65038;DHT22;51605;47.040;15.294;2023-09-19T06:02:58;24.50;51.10
65038;DHT22;51605;47.040;15.294;2023-09-19T06:05:27;24.60;51.20
65038;DHT22;51605;47.040;15.294;2023-09-19T06:07:54;24.60;51.30
65038;DHT22;51605;47.040;15.294;2023-09-19T06:10:20;24.50;50.80
65038;DHT22;51605;47.040;15.294;2023-09-19T06:12:46;24.40;50.30
65038;DHT22;51605;47.040;15.294;2023-09-19T06:15:14;24.40;49.80
65038;DHT22;51605;47.040;15.294;2023-09-19T06:17:49;24.40;49.50
65038;DHT22;51605;47.040;15.294;2023-09-19T06:20:15;24.40;49.10
65038;DHT22;51605;47.040;15.294;2023-09-19T06:22:42;24.40;48.80
65038;DHT22;51605;47.040;15.294;2023-09-19T06:25:10;24.40;48.70
65038;DHT22;51605;47.040;15.294;2023-09-19T06:27:41;24.40;48.30
65038;DHT22;51605;47.040;15.294;2023-09-19T06:30:08;24.50;48.20
65038;DHT22;51605;47.040;15.294;2023-09-19T06:32:34;24.50;47.80
65038;DHT22;51605;47.040;15.294;2023-09-19T06:35:00;24.50;47.70
65038;DHT22;51605;47.040;15.294;2023-09-19T06:37:29;24.60;47.60
65038;DHT22;51605;47.040;15.294;2023-09-19T06:39:55;24.60;47.40
65038;DHT22;51605;47.040;15.294;2023-09-19T06:42:22;24.60;47.30
65038;DHT22;51605;47.040;15.294;2023-09-19T06:44:48;24.60;47.00
65038;DHT22;51605;47.040;15.294;2023-09-19T06:47:14;24.70;46.90
65038;DHT22;51605;47.040;15.294;2023-09-19T06:49:41;24.60;46.80
65038;DHT22;51605;47.040;15.294;2023-09-19T06:52:09;24.60;46.70
65038;DHT22;51605;47.040;15.294;2023-09-19T06:54:35;24.70;46.70
65038;DHT22;51605;47.040;15.294;2023-09-19T06:57:01;24.60;46.50
65038;DHT22;51605;47.040;15.294;2023-09-19T06:59:27;24.70;46.50
65038;DHT22;51605;47.040;15.294;2023-09-19T07:01:53;24.70;46.40
65038;DHT22;51605;47.040;15.294;2023-09-19T07:04:18;24.70;46.30
65038;DHT22;51605;47.040;15.294;2023-09-19T07:06:50;24.70;46.30
65038;DHT22;51605;47.040;15.294;2023-09-19T07:09:16;24.70;46.20
65038;DHT22;51605;47.040;15.294;2023-09-19T07:11:42;24.70;46.10
65038;DHT22;51605;47.040;15.294;2023-09-19T07:14:08;24.70;46.00
65038;DHT22;51605;47.040;15.294;2023-09-19T07:16:37;24.70;45.90
65038;DHT22;51605;47.040;15.294;2023-09-19T07:19:04;24.80;45.90
65038;DHT22;51605;47.040;15.294;2023-09-19T07:21:30;24.70;45.70
65038;DHT22;51605;47.040;15.294;2023-09-19T07:23:56;24.80;45.70
65038;DHT22;51605;47.040;15.294;2023-09-19T07:26:21;24.70;45.60
65038;DHT22;51605;47.040;15.294;2023-09-19T07:28:47;24.80;45.50
65038;DHT22;51605;47.040;15.294;2023-09-19T07:31:13;24.80;45.50
65038;DHT22;51605;47.040;15.294;2023-09-19T07:33:39;24.80;45.50
65038;DHT22;51605;47.040;15.294;2023-09-19T07:36:05;24.80;45.40
65038;DHT22;51605;47.040;15.294;2023-09-19T07:38:31;24.80;45.30
65038;DHT22;51605;47.040;15.294;2023-09-19T07:41:01;24.80;45.30
65038;DHT22;51605;47.040;15.294;2023-09-19T07:43:27;24.80;45.30
65038;DHT22;51605;47.040;15.294;2023-09-19T07:45:53;24.80;45.10
65038;DHT22;51605;47.040;15.294;2023-09-19T07:48:19;24.80;45.10
65038;DHT22;51605;47.040;15.294;2023-09-19T07:50:44;24.80;45.00
65038;DHT22;51605;47.040;15.294;2023-09-19T07:53:11;24.80;45.00
65038;DHT22;51605;47.040;15.294;2023-09-19T07:55:39;24.80;45.00
65038;DHT22;51605;47.040;15.294;2023-09-19T07:58:06;24.80;44.90
65038;DHT22;51605;47.040;15.294;2023-09-19T08:00:32;24.80;44.90
65038;DHT22;51605;47.040;15.294;2023-09-19T08:03:00;24.80;44.80
65038;DHT22;51605;47.040;15.294;2023-09-19T08:05:26;24.80;44.70
65038;DHT22;51605;47.040;15.294;2023-09-19T08:07:52;24.80;44.80
65038;DHT22;51605;47.040;15.294;2023-09-19T08:10:18;24.80;46.10
65038;DHT22;51605;47.040;15.294;2023-09-19T08:12:45;24.70;46.90
65038;DHT22;51605;47.040;15.294;2023-09-19T08:15:18;24.70;46.30
65038;DHT22;51605;47.040;15.294;2023-09-19T08:17:48;24.70;45.90
65038;DHT22;51605;47.040;15.294;2023-09-19T08:20:13;24.70;45.70
65038;DHT22;51605;47.040;15.294;2023-09-19T08:22:44;24.70;45.40
65038;DHT22;51605;47.040;15.294;2023-09-19T08:25:13;24.80;45.30
65038;DHT22;51605;47.040;15.294;2023-09-19T08:27:38;24.80;45.20
65038;DHT22;51605;47.040;15.294;2023-09-19T08:30:04;24.80;45.10
65038;DHT22;51605;47.040;15.294;2023-09-19T08:32:31;24.80;45.00
65038;DHT22;51605;47.040;15.294;2023-09-19T08:34:57;24.80;44.90
65038;DHT22;51605;47.040;15.294;2023-09-19T08:37:25;24.80;44.80
65038;DHT22;51605;47.040;15.294;2023-09-19T08:39:51;24.80;44.70
65038;DHT22;51605;47.040;15.294;2023-09-19T08:42:17;24.80;44.70
65038;DHT22;51605;47.040;15.294;2023-09-19T08:44:43;24.80;44.60
65038;DHT22;51605;47.040;15.294;2023-09-19T08:47:10;24.80;44.50
65038;DHT22;51605;47.040;15.294;2023-09-19T08:52:32;24.80;44.40
65038;DHT22;51605;47.040;15.294;2023-09-19T08:55:02;24.80;44.30
65038;DHT22;51605;47.040;15.294;2023-09-19T08:57:33;24.80;44.30
65038;DHT22;51605;47.040;15.294;2023-09-19T09:00:02;24.80;45.30
65038;DHT22;51605;47.040;15.294;2023-09-19T09:02:32;24.80;45.60
65038;DHT22;51605;47.040;15.294;2023-09-19T09:04:59;24.70;46.50
65038;DHT22;51605;47.040;15.294;2023-09-19T09:07:25;24.70;45.70
65038;DHT22;51605;47.040;15.294;2023-09-19T09:09:54;24.70;46.20
65038;DHT22;51605;47.040;15.294;2023-09-19T09:12:19;24.70;46.40
65038;DHT22;51605;47.040;15.294;2023-09-19T09:14:46;24.70;46.40
65038;DHT22;51605;47.040;15.294;2023-09-19T09:17:14;24.70;46.60
65038;DHT22;51605;47.040;15.294;2023-09-19T09:19:40;24.80;46.90
65038;DHT22;51605;47.040;15.294;2023-09-19T09:22:11;24.70;48.00
65038;DHT22;51605;47.040;15.294;2023-09-19T09:24:38;24.70;46.90
65038;DHT22;51605;47.040;15.294;2023-09-19T09:27:15;24.70;46.90
65038;DHT22;51605;47.040;15.294;2023-09-19T09:29:49;24.70;46.90
65038;DHT22;51605;47.040;15.294;2023-09-19T09:32:26;24.70;47.10
65038;DHT22;51605;47.040;15.294;2023-09-19T09:34:55;24.70;47.10
65038;DHT22;51605;47.040;15.294;2023-09-19T09:37:22;24.70;47.20
65038;DHT22;51605;47.040;15.294;2023-09-19T09:42:49;24.60;47.30
65038;DHT22;51605;47.040;15.294;2023-09-19T09:45:24;24.60;47.40
65038;DHT22;51605;47.040;15.294;2023-09-19T09:48:00;24.60;47.40
65038;DHT22;51605;47.040;15.294;2023-09-19T09:50:35;24.70;47.40
65038;DHT22;51605;47.040;15.294;2023-09-19T09:53:23;24.60;47.40
65038;DHT22;51605;47.040;15.294;2023-09-19T09:56:07;24.60;47.50
65038;DHT22;51605;47.040;15.294;2023-09-19T09:58:48;24.60;47.60
65038;DHT22;51605;47.040;15.294;2023-09-19T10:01:14;24.60;47.80
65038;DHT22;51605;47.040;15.294;2023-09-19T10:03:42;24.60;47.80
65038;DHT22;51605;47.040;15.294;2023-09-19T10:06:17;24.60;47.80
65038;DHT22;51605;47.040;15.294;2023-09-19T10:11:46;24.50;47.90
65038;DHT22;51605;47.040;15.294;2023-09-19T10:14:16;24.50;48.00
65038;DHT22;51605;47.040;15.294;2023-09-19T10:16:48;24.50;48.00
65038;DHT22;51605;47.040;15.294;2023-09-19T10:22:11;24.50;48.20
65038;DHT22;51605;47.040;15.294;2023-09-19T10:24:39;24.50;48.10
65038;DHT22;51605;47.040;15.294;2023-09-19T10:27:06;24.50;48.20
65038;DHT22;51605;47.040;15.294;2023-09-19T10:29:35;24.50;48.30
65038;DHT22;51605;47.040;15.294;2023-09-19T10:32:05;24.50;48.40
65038;DHT22;51605;47.040;15.294;2023-09-19T10:34:35;24.40;48.30
65038;DHT22;51605;47.040;15.294;2023-09-19T10:37:02;24.50;48.30
65038;DHT22;51605;47.040;15.294;2023-09-19T10:39:32;24.40;48.30
65038;DHT22;51605;47.040;15.294;2023-09-19T10:42:02;24.40;48.30
65038;DHT22;51605;47.040;15.294;2023-09-19T10:44:32;24.40;48.30
65038;DHT22;51605;47.040;15.294;2023-09-19T10:46:58;24.40;48.50
65038;DHT22;51605;47.040;15.294;2023-09-19T10:49:25;24.50;48.60
65038;DHT22;51605;47.040;15.294;2023-09-19T10:51:56;24.40;48.50
65038;DHT22;51605;47.040;15.294;2023-09-19T10:54:27;24.50;48.60
65038;DHT22;51605;47.040;15.294;2023-09-19T10:56:54;24.50;48.60
65038;DHT22;51605;47.040;15.294;2023-09-19T10:59:24;24.40;49.50
65038;DHT22;51605;47.040;15.294;2023-09-19T11:01:52;24.50;48.70
65038;DHT22;51605;47.040;15.294;2023-09-19T11:04:30;24.50;48.70
65038;DHT22;51605;47.040;15.294;2023-09-19T11:07:07;24.40;48.70
65038;DHT22;51605;47.040;15.294;2023-09-19T11:14:55;24.50;48.70
65038;DHT22;51605;47.040;15.294;2023-09-19T11:30:31;24.50;49.00
65038;DHT22;51605;47.040;15.294;2023-09-19T11:36:16;24.50;49.00
65038;DHT22;51605;47.040;15.294;2023-09-19T11:43:46;24.60;48.90
65038;DHT22;51605;47.040;15.294;2023-09-19T11:46:12;24.50;48.80
65038;DHT22;51605;47.040;15.294;2023-09-19T11:48:42;24.50;49.00
65038;DHT22;51605;47.040;15.294;2023-09-19T11:51:13;24.50;49.00
65038;DHT22;51605;47.040;15.294;2023-09-19T11:53:48;24.50;49.10
65038;DHT22;51605;47.040;15.294;2023-09-19T11:56:19;24.50;49.10
65038;DHT22;51605;47.040;15.294;2023-09-19T11:58:46;24.50;49.10
65038;DHT22;51605;47.040;15.294;2023-09-19T12:01:20;24.50;49.10
65038;DHT22;51605;47.040;15.294;2023-09-19T12:03:53;24.50;49.10
65038;DHT22;51605;47.040;15.294;2023-09-19T12:06:20;24.50;49.20
65038;DHT22;51605;47.040;15.294;2023-09-19T12:08:47;24.50;49.20
65038;DHT22;51605;47.040;15.294;2023-09-19T12:11:14;24.50;49.10
65038;DHT22;51605;47.040;15.294;2023-09-19T12:13:44;24.50;49.20
65038;DHT22;51605;47.040;15.294;2023-09-19T12:16:18;24.50;49.10
65038;DHT22;51605;47.040;15.294;2023-09-19T12:18:47;24.50;49.00
65038;DHT22;51605;47.040;15.294;2023-09-19T12:21:29;24.50;49.10
65038;DHT22;51605;47.040;15.294;2023-09-19T12:26:42;24.50;49.20
65038;DHT22;51605;47.040;15.294;2023-09-19T12:29:19;24.50;49.20
65038;DHT22;51605;47.040;15.294;2023-09-19T12:31:51;24.50;49.30
65038;DHT22;51605;47.040;15.294;2023-09-19T12:34:20;24.50;49.30
65038;DHT22;51605;47.040;15.294;2023-09-19T12:36:46;24.50;49.30
65038;DHT22;51605;47.040;15.294;2023-09-19T12:39:23;24.50;49.30
65038;DHT22;51605;47.040;15.294;2023-09-19T12:41:50;24.50;49.20
65038;DHT22;51605;47.040;15.294;2023-09-19T12:44:16;24.50;49.30
65038;DHT22;51605;47.040;15.294;2023-09-19T12:46:44;24.50;49.10
65038;DHT22;51605;47.040;15.294;2023-09-19T12:49:19;24.50;49.10
65038;DHT22;51605;47.040;15.294;2023-09-19T12:51:46;24.50;49.20
65038;DHT22;51605;47.040;15.294;2023-09-19T12:54:13;24.60;49.20
65038;DHT22;51605;47.040;15.294;2023-09-19T12:56:45;24.50;49.20
65038;DHT22;51605;47.040;15.294;2023-09-19T12:59:14;24.50;49.40
65038;DHT22;51605;47.040;15.294;2023-09-19T13:01:41;24.50;49.40
65038;DHT22;51605;47.040;15.294;2023-09-19T13:04:20;24.50;49.50
65038;DHT22;51605;47.040;15.294;2023-09-19T13:06:52;24.50;49.50
65038;DHT22;51605;47.040;15.294;2023-09-19T13:09:21;24.50;49.40
65038;DHT22;51605;47.040;15.294;2023-09-19T13:11:47;24.40;49.40
65038;DHT22;51605;47.040;15.294;2023-09-19T13:14:26;24.40;49.50
65038;DHT22;51605;47.040;15.294;2023-09-19T13:17:09;24.40;49.50
65038;DHT22;51605;47.040;15.294;2023-09-19T13:19:49;24.40;49.50
65038;DHT22;51605;47.040;15.294;2023-09-19T13:22:42;24.50;49.50
65038;DHT22;51605;47.040;15.294;2023-09-19T13:25:14;24.40;49.50
65038;DHT22;51605;47.040;15.294;2023-09-19T13:27:45;24.40;49.40
65038;DHT22;51605;47.040;15.294;2023-09-19T13:30:12;24.50;49.50
65038;DHT22;51605;47.040;15.294;2023-09-19T13:32:38;24.40;49.60
65038;DHT22;51605;47.040;15.294;2023-09-19T13:35:07;24.40;49.50
65038;DHT22;51605;47.040;15.294;2023-09-19T13:37:37;24.40;50.40
65038;DHT22;51605;47.040;15.294;2023-09-19T13:40:07;24.40;49.50
65038;DHT22;51605;47.040;15.294;2023-09-19T13:42:33;24.50;49.50
65038;DHT22;51605;47.040;15.294;2023-09-19T13:44:59;24.50;49.50
65038;DHT22;51605;47.040;15.294;2023-09-19T13:47:25;24.50;49.40
65038;DHT22;51605;47.040;15.294;2023-09-19T13:49:52;24.50;49.50
65038;DHT22;51605;47.040;15.294;2023-09-19T13:52:21;24.50;49.40
65038;DHT22;51605;47.040;15.294;2023-09-19T13:54:51;24.50;49.40
65038;DHT22;51605;47.040;15.294;2023-09-19T13:57:18;24.60;49.50
65038;DHT22;51605;47.040;15.294;2023-09-19T13:59:44;24.50;49.50
65038;DHT22;51605;47.040;15.294;2023-09-19T14:02:09;24.50;49.50
65038;DHT22;51605;47.040;15.294;2023-09-19T14:04:35;24.50;49.50
65038;DHT22;51605;47.040;15.294;2023-09-19T14:07:01;24.50;49.50
65038;DHT22;51605;47.040;15.294;2023-09-19T14:09:27;24.50;49.40
65038;DHT22;51605;47.040;15.294;2023-09-19T14:11:53;24.60;49.50
65038;DHT22;51605;47.040;15.294;2023-09-19T14:14:19;24.60;49.50
65038;DHT22;51605;47.040;15.294;2023-09-19T14:16:46;24.60;49.60
65038;DHT22;51605;47.040;15.294;2023-09-19T14:19:12;24.50;49.60
65038;DHT22;51605;47.040;15.294;2023-09-19T14:21:39;24.60;49.60
65038;DHT22;51605;47.040;15.294;2023-09-19T14:24:05;24.50;49.50
65038;DHT22;51605;47.040;15.294;2023-09-19T14:26:35;24.50;49.50
65038;DHT22;51605;47.040;15.294;2023-09-19T14:29:01;24.50;49.50
65038;DHT22;51605;47.040;15.294;2023-09-19T14:31:27;24.50;49.60
65038;DHT22;51605;47.040;15.294;2023-09-19T14:33:57;24.50;49.60
65038;DHT22;51605;47.040;15.294;2023-09-19T14:36:25;24.50;49.60
65038;DHT22;51605;47.040;15.294;2023-09-19T14:38:53;24.50;49.60
65038;DHT22;51605;47.040;15.294;2023-09-19T14:41:25;24.50;49.60
65038;DHT22;51605;47.040;15.294;2023-09-19T14:43:54;24.50;49.70
65038;DHT22;51605;47.040;15.294;2023-09-19T14:46:21;24.50;49.60
65038;DHT22;51605;47.040;15.294;2023-09-19T14:48:47;24.50;49.60
65038;DHT22;51605;47.040;15.294;2023-09-19T14:51:13;24.50;49.70
65038;DHT22;51605;47.040;15.294;2023-09-19T14:53:40;24.50;49.60
65038;DHT22;51605;47.040;15.294;2023-09-19T14:56:08;24.50;49.70
65038;DHT22;51605;47.040;15.294;2023-09-19T14:58:34;24.60;49.70
65038;DHT22;51605;47.040;15.294;2023-09-19T15:03:33;24.50;49.70
65038;DHT22;51605;47.040;15.294;2023-09-19T15:06:05;24.50;49.80
65038;DHT22;51605;47.040;15.294;2023-09-19T15:08:32;24.50;49.80
65038;DHT22;51605;47.040;15.294;2023-09-19T15:11:00;24.50;49.80
65038;DHT22;51605;47.040;15.294;2023-09-19T15:13:29;24.50;49.90
65038;DHT22;51605;47.040;15.294;2023-09-19T15:16:03;24.50;49.80
65038;DHT22;51605;47.040;15.294;2023-09-19T15:18:29;24.50;49.80
65038;DHT22;51605;47.040;15.294;2023-09-19T15:21:02;24.50;49.80
65038;DHT22;51605;47.040;15.294;2023-09-19T15:23:32;24.50;50.80
65038;DHT22;51605;47.040;15.294;2023-09-19T15:26:03;24.50;50.20
65038;DHT22;51605;47.040;15.294;2023-09-19T15:28:29;24.50;49.90
65038;DHT22;51605;47.040;15.294;2023-09-19T15:31:03;24.50;49.80
65038;DHT22;51605;47.040;15.294;2023-09-19T15:33:30;24.40;50.10
65038;DHT22;51605;47.040;15.294;2023-09-19T15:36:03;24.40;50.10
65038;DHT22;51605;47.040;15.294;2023-09-19T15:38:29;24.40;50.10
65038;DHT22;51605;47.040;15.294;2023-09-19T15:40:57;24.40;50.10
65038;DHT22;51605;47.040;15.294;2023-09-19T15:43:23;24.40;50.10
65038;DHT22;51605;47.040;15.294;2023-09-19T15:45:49;24.40;50.10
65038;DHT22;51605;47.040;15.294;2023-09-19T15:48:15;24.40;50.10
65038;DHT22;51605;47.040;15.294;2023-09-19T15:50:42;24.40;50.10
65038;DHT22;51605;47.040;15.294;2023-09-19T15:53:10;24.40;50.10
65038;DHT22;51605;47.040;15.294;2023-09-19T15:55:40;24.40;50.10
65038;DHT22;51605;47.040;15.294;2023-09-19T15:58:07;24.40;50.30
65038;DHT22;51605;47.040;15.294;2023-09-19T16:00:33;24.40;50.20
65038;DHT22;51605;47.040;15.294;2023-09-19T16:03:02;24.40;51.20
65038;DHT22;51605;47.040;15.294;2023-09-19T16:05:34;24.40;50.30
65038;DHT22;51605;47.040;15.294;2023-09-19T16:08:03;24.40;50.30
65038;DHT22;51605;47.040;15.294;2023-09-19T16:10:29;24.40;50.30
65038;DHT22;51605;47.040;15.294;2023-09-19T16:12:55;24.40;50.30
65038;DHT22;51605;47.040;15.294;2023-09-19T16:15:20;24.40;50.30
65038;DHT22;51605;47.040;15.294;2023-09-19T16:17:46;24.40;50.30
65038;DHT22;51605;47.040;15.294;2023-09-19T16:20:12;24.40;50.20
65038;DHT22;51605;47.040;15.294;2023-09-19T16:22:38;24.40;50.10
65038;DHT22;51605;47.040;15.294;2023-09-19T16:25:06;24.40;50.20
65038;DHT22;51605;47.040;15.294;2023-09-19T16:27:31;24.40;50.10
65038;DHT22;51605;47.040;15.294;2023-09-19T16:29:57;24.40;50.30